Archival Weather

Vermilion Rgnl

Danville, Illinois (KDNV)

Report from: Saturday, April 13, 2024 2:15 AM CDT
Current time: Sunday, July 14, 2024 5:44 AM CDT

Current weather – Weather history – Daily summaries
Weather forecast

Temperature9.2°C (48.6°F)
Wind chill7.2°C (45.0°F)
Dew point2.5°C (36.5°F)
Winds 7 kts (3.6 m/s, 8.1 mph) West-Northwest (290°)
Visibility10 mi. (16.1 km)
Clouds Sky clear
Altimeter30.07 in.Hg (1018 mB)
Relative humidity63 %
Density altitude-756 ft. (-230 m)
Remarks Fully automated report
Automated weather observing station with precipitation discriminator
Flight conditions Visual Meteorological Conditions
Raw dataKDNV 130715Z AUTO 29007KT 10SM CLR 09/03 A3007 RMK AO2 T00920025
An error has occurred. This application may no longer respond until reloaded. Reload 🗙